Time;durP1;ratioP1;P1;durP2;ratioP2;P2;SDS_P1;SDS_P2;PMS_P1;PMS_P2;Temp;Humidity;BMP_temperature;BMP_pressure;BME280_temperature;BME280_humidity;BME280_pressure;Samples;Min_cycle;Max_cycle;Signal;HPM_P1;HPM_P2
2023/04/29 00:00:36;;;;;;;0.80;0.80;;;;;;;10.48;100.00;100391.00;5089801;28;20198;-73
2023/04/29 00:03:03;;;;;;;0.60;0.60;;;;;;;10.34;100.00;100385.53;5090218;28;20198;-73
2023/04/29 00:05:31;;;;;;;0.80;0.80;;;;;;;10.39;100.00;100383.00;5090484;28;20209;-74
2023/04/29 00:07:58;;;;;;;0.70;0.70;;;;;;;10.24;100.00;100375.78;5090222;28;20269;-72
2023/04/29 00:10:24;;;;;;;1.17;1.17;;;;;;;10.18;100.00;100374.78;5089855;28;20209;-72
2023/04/29 00:12:51;;;;;;;0.70;0.70;;;;;;;9.98;100.00;100366.56;5089679;28;20571;-71
2023/04/29 00:15:18;;;;;;;0.70;0.70;;;;;;;10.11;100.00;100373.75;5081530;28;20245;-72
2023/04/29 00:17:45;;;;;;;0.70;0.70;;;;;;;9.95;100.00;100354.41;5090025;28;20220;-72
2023/04/29 00:20:13;;;;;;;0.90;0.90;;;;;;;9.92;100.00;100371.59;5090392;28;20258;-72
2023/04/29 00:22:41;;;;;;;0.80;0.80;;;;;;;10.03;100.00;100364.06;5089693;28;20684;-73
2023/04/29 00:25:09;;;;;;;0.70;0.70;;;;;;;10.10;100.00;100364.22;5049219;28;20206;-72
2023/04/29 00:27:36;;;;;;;0.70;0.70;;;;;;;9.91;100.00;100352.63;5081171;28;20197;-71
2023/04/29 00:30:03;;;;;;;0.70;0.70;;;;;;;10.02;100.00;100357.16;5089988;28;20209;-72
2023/04/29 00:32:30;;;;;;;0.73;0.73;;;;;;;9.96;100.00;100347.50;5089880;28;20288;-72
2023/04/29 00:34:57;;;;;;;0.70;0.70;;;;;;;9.75;100.00;100321.16;5090143;28;20226;-73
2023/04/29 00:37:24;;;;;;;0.98;0.98;;;;;;;9.89;100.00;100350.81;5089928;28;20262;-73
2023/04/29 00:39:52;;;;;;;0.90;0.90;;;;;;;10.05;100.00;100354.63;5089667;28;20210;-72
2023/04/29 00:42:19;;;;;;;0.80;0.80;;;;;;;9.94;100.00;100350.09;5071278;28;20201;-72
2023/04/29 00:44:45;;;;;;;0.80;0.80;;;;;;;9.88;100.00;100343.91;5093364;28;20206;-72
2023/04/29 00:47:12;;;;;;;0.70;0.70;;;;;;;9.88;100.00;100343.91;5093644;28;20237;-72
2023/04/29 00:49:39;;;;;;;0.90;0.90;;;;;;;9.78;100.00;100331.56;5093649;28;20198;-72
2023/04/29 00:52:08;;;;;;;0.70;0.70;;;;;;;9.71;100.00;100330.56;5093714;28;20198;-72
2023/04/29 00:54:35;;;;;;;0.80;0.80;;;;;;;9.94;100.00;100350.09;5093510;28;20304;-72
2023/04/29 00:57:05;;;;;;;0.70;0.70;;;;;;;10.03;100.00;100348.50;5093461;28;20225;-72
2023/04/29 00:59:32;;;;;;;1.15;1.15;;;;;;;9.68;100.00;100332.22;5093393;28;20661;-72
2023/04/29 01:02:00;;;;;;;1.17;1.17;;;;;;;9.62;100.00;100351.09;5093340;28;20267;-72
2023/04/29 01:04:27;;;;;;;1.05;1.02;;;;;;;9.65;100.00;100348.56;5070911;28;20198;-72
2023/04/29 01:07:02;;;;;;;0.90;0.90;;;;;;;9.77;100.00;100350.56;5059621;28;20198;-72
2023/04/29 01:09:45;;;;;;;0.70;0.70;;;;;;;9.52;100.00;100335.31;5083506;28;20274;-72
2023/04/29 01:12:20;;;;;;;0.80;0.80;;;;;;;9.42;100.00;100337.66;5070677;28;20544;-72
2023/04/29 01:14:58;;;;;;;0.80;0.80;;;;;;;9.35;100.00;100333.19;5087299;28;20309;-73
2023/04/29 01:17:26;;;;;;;0.70;0.70;;;;;;;9.17;100.00;100334.44;5056086;28;20597;-71
2023/04/29 01:19:55;;;;;;;0.60;0.60;;;;;;;9.25;100.00;100346.75;5092466;28;20294;-71
2023/04/29 01:22:22;;;;;;;0.70;0.70;;;;;;;8.89;100.00;100328.59;5092578;28;20201;-72
2023/04/29 01:24:50;;;;;;;0.63;0.63;;;;;;;9.22;100.00;100344.09;5092803;28;20642;-71
2023/04/29 01:27:28;;;;;;;0.80;0.80;;;;;;;9.15;100.00;100342.19;5092769;28;20194;-72
2023/04/29 01:30:01;;;;;;;0.70;0.70;;;;;;;9.19;100.00;100337.97;5056730;28;20197;-72
2023/04/29 01:32:35;;;;;;;0.63;0.63;;;;;;;9.15;100.00;100337.00;5057131;28;20209;-73
2023/04/29 01:35:11;;;;;;;0.70;0.70;;;;;;;9.23;100.00;100338.09;5092513;28;20228;-72
2023/04/29 01:37:45;;;;;;;0.70;0.70;;;;;;;9.21;100.00;100333.69;5093057;28;20661;-72
2023/04/29 01:40:20;;;;;;;0.70;0.70;;;;;;;9.15;100.00;100331.84;5056932;28;20194;-72
2023/04/29 01:42:55;;;;;;;0.80;0.80;;;;;;;9.37;100.00;100336.69;5092699;28;20255;-73
2023/04/29 01:45:23;;;;;;;0.65;0.65;;;;;;;9.20;100.00;100308.69;5092762;28;20194;-73
2023/04/29 01:47:54;;;;;;;0.70;0.70;;;;;;;9.36;100.00;100337.53;5092556;28;20194;-72
2023/04/29 01:50:21;;;;;;;0.90;0.90;;;;;;;9.40;100.00;100331.59;5092461;28;20209;-72
2023/04/29 01:52:48;;;;;;;0.70;0.70;;;;;;;9.34;100.00;100335.75;5092633;28;20206;-73
2023/04/29 01:55:17;;;;;;;0.70;0.70;;;;;;;9.44;100.00;100329.94;5091578;28;20359;-72
2023/04/29 01:57:44;;;;;;;0.80;0.80;;;;;;;9.44;100.00;100333.41;5056717;28;20271;-72
2023/04/29 02:00:11;;;;;;;0.60;0.60;;;;;;;9.54;100.00;100331.03;5092407;28;20603;-72
2023/04/29 02:02:38;;;;;;;0.90;0.90;;;;;;;9.47;100.00;100335.19;5092336;28;20287;-72
2023/04/29 02:05:05;;;;;;;1.00;1.00;;;;;;;9.61;100.00;100333.78;5092334;28;20206;-72
2023/04/29 02:07:32;;;;;;;0.65;0.65;;;;;;;9.46;100.00;100317.91;5092224;28;20263;-72
2023/04/29 02:09:59;;;;;;;0.70;0.70;;;;;;;9.51;100.00;100329.25;5091963;28;20565;-72
2023/04/29 02:12:27;;;;;;;0.90;0.90;;;;;;;9.64;100.00;100327.81;5091565;28;20650;-72
2023/04/29 02:14:54;;;;;;;0.70;0.70;;;;;;;9.54;100.00;100318.97;5091151;28;20217;-72
2023/04/29 02:17:21;;;;;;;0.65;0.65;;;;;;;9.59;100.00;100312.19;5091274;28;20238;-72
2023/04/29 02:19:47;;;;;;;0.70;0.70;;;;;;;9.66;100.00;100327.03;5089779;28;20255;-72
2023/04/29 02:22:14;;;;;;;0.70;0.70;;;;;;;9.68;100.00;100316.69;5091067;28;20244;-72
2023/04/29 02:24:41;;;;;;;0.80;0.80;;;;;;;9.56;100.00;100308.66;5091632;28;20202;-72
2023/04/29 02:27:08;;;;;;;0.80;0.80;;;;;;;9.51;100.00;100305.97;5069206;28;20748;-73
2023/04/29 02:29:37;;;;;;;0.70;0.70;;;;;;;9.86;100.00;100324.84;5079090;28;20195;-72
2023/04/29 02:32:03;;;;;;;0.70;0.70;;;;;;;9.75;99.39;100315.97;5091921;28;20299;-72
2023/04/29 02:34:30;;;;;;;0.70;0.70;;;;;;;9.76;97.63;100304.78;5092012;28;20391;-72
2023/04/29 02:36:57;;;;;;;0.80;0.80;;;;;;;9.73;97.48;100313.38;5090927;28;20190;-72
2023/04/29 02:39:24;;;;;;;0.80;0.80;;;;;;;9.77;96.22;100312.59;5091735;28;20198;-73
2023/04/29 02:41:54;;;;;;;0.70;0.70;;;;;;;9.77;96.28;100304.84;5056051;28;20240;-72
2023/04/29 02:44:21;;;;;;;0.88;0.88;;;;;;;9.68;96.23;100314.09;5091323;28;20565;-72
2023/04/29 02:46:49;;;;;;;0.80;0.80;;;;;;;9.76;96.70;100322.91;5090804;28;20226;-72
2023/04/29 02:49:16;;;;;;;0.68;0.68;;;;;;;9.62;96.00;100291.53;5091456;28;20224;-72
2023/04/29 02:51:42;;;;;;;0.80;0.80;;;;;;;9.83;94.86;100314.44;5090952;28;20190;-71
2023/04/29 02:54:10;;;;;;;0.70;0.70;;;;;;;9.94;93.83;100318.13;5091316;28;20205;-72
2023/04/29 02:56:37;;;;;;;0.80;0.80;;;;;;;9.90;93.28;100322.38;5091345;28;20194;-72
2023/04/29 02:59:03;;;;;;;0.75;0.75;;;;;;;9.90;92.50;100326.66;5091749;28;20210;-72
2023/04/29 03:01:30;;;;;;;0.80;0.80;;;;;;;10.01;91.93;100326.91;5055880;28;20664;-71
2023/04/29 03:03:58;;;;;;;0.80;0.80;;;;;;;10.20;92.45;100321.31;5071728;28;20672;-71
2023/04/29 03:06:26;;;;;;;0.70;0.70;;;;;;;10.02;93.79;100310.53;5090218;28;20212;-71
2023/04/29 03:08:53;;;;;;;1.00;1.00;;;;;;;10.16;95.24;100332.44;5089764;28;20202;-72
2023/04/29 03:11:22;;;;;;;0.80;0.80;;;;;;;10.11;96.54;100331.41;5089973;28;20676;-72
2023/04/29 03:13:48;;;;;;;0.93;0.93;;;;;;;10.16;97.76;100335.03;5089011;28;20218;-72
2023/04/29 03:16:15;;;;;;;0.70;0.70;;;;;;;10.15;97.98;100338.44;5090287;28;20218;-71
2023/04/29 03:18:42;;;;;;;0.70;0.70;;;;;;;10.17;97.66;100337.63;5090073;28;20286;-72
2023/04/29 03:21:11;;;;;;;0.60;0.60;;;;;;;10.26;97.69;100340.44;5090077;28;20194;-72
2023/04/29 03:23:39;;;;;;;0.65;0.65;;;;;;;10.24;99.78;100339.50;5087207;28;20299;-72
2023/04/29 03:26:06;;;;;;;0.75;0.75;;;;;;;10.29;99.94;100339.59;5090535;28;20209;-73
2023/04/29 03:28:33;;;;;;;0.70;0.70;;;;;;;10.36;100.00;100338.88;5090394;28;20194;-73
2023/04/29 03:31:00;;;;;;;0.68;0.68;;;;;;;10.36;100.00;100334.59;5054852;28;20186;-72
2023/04/29 03:33:27;;;;;;;0.70;0.70;;;;;;;10.45;100.00;100339.09;5090215;28;20209;-72
2023/04/29 03:35:54;;;;;;;0.70;0.70;;;;;;;10.47;100.00;100339.09;5087379;28;20218;-71
2023/04/29 03:38:24;;;;;;;0.80;0.80;;;;;;;10.63;100.00;100341.16;5067922;28;20709;-71
2023/04/29 03:40:51;;;;;;;0.70;0.70;;;;;;;10.74;97.49;100347.38;5071560;28;20205;-72
2023/04/29 03:43:18;;;;;;;0.68;0.68;;;;;;;10.78;93.47;100338.81;5090575;28;20212;-71
2023/04/29 03:45:45;;;;;;;0.70;0.70;;;;;;;11.26;92.23;100339.69;5075950;28;20217;-71
2023/04/29 03:48:13;;;;;;;0.70;0.70;;;;;;;11.92;83.48;100329.44;5087712;28;20190;-72
2023/04/29 03:50:40;;;;;;;0.55;0.55;;;;;;;12.93;78.44;100349.69;5090423;28;20206;-72
2023/04/29 03:53:07;;;;;;;0.60;0.60;;;;;;;13.72;75.82;100358.19;5090067;28;20201;-72
2023/04/29 03:55:35;;;;;;;0.60;0.60;;;;;;;14.64;67.42;100363.00;5089933;28;20226;-72
2023/04/29 03:58:02;;;;;;;0.60;0.60;;;;;;;15.34;63.98;100371.81;5070236;28;20687;-72
2023/04/29 04:00:30;;;;;;;0.60;0.60;;;;;;;16.04;60.11;100367.44;5071919;28;20202;-72
2023/04/29 04:02:57;;;;;;;0.60;0.60;;;;;;;16.20;54.31;100368.25;5089829;28;20281;-72
2023/04/29 04:05:25;;;;;;;0.60;0.60;;;;;;;16.41;53.23;100381.25;5090709;28;20286;-72
2023/04/29 04:07:52;;;;;;;2.72;2.58;;;;;;;16.16;51.79;100375.25;5089179;28;20197;-72
2023/04/29 04:10:18;;;;;;;0.75;0.75;;;;;;;15.22;53.67;100383.16;5089433;28;20201;-72
2023/04/29 04:12:47;;;;;;;0.60;0.60;;;;;;;15.31;54.24;100390.13;5089588;28;20194;-71
2023/04/29 04:15:17;;;;;;;0.63;0.63;;;;;;;15.56;53.11;100383.19;5089564;28;20302;-72
2023/04/29 04:17:43;;;;;;;0.60;0.60;;;;;;;14.92;53.72;100350.88;5091205;28;20196;-72
2023/04/29 04:20:12;;;;;;;0.60;0.60;;;;;;;15.49;53.86;100371.00;5094255;28;20205;-72
2023/04/29 04:22:38;;;;;;;0.63;0.63;;;;;;;16.04;54.26;100379.66;5093920;28;20206;-71
2023/04/29 04:25:07;;;;;;;0.57;0.57;;;;;;;15.86;51.82;100360.50;5094093;28;20224;-72
2023/04/29 04:27:34;;;;;;;0.50;0.50;;;;;;;15.95;50.82;100375.28;5074888;28;20201;-71
2023/04/29 04:30:02;;;;;;;0.60;0.60;;;;;;;16.33;51.17;100377.81;5094058;28;20199;-71
2023/04/29 04:32:28;;;;;;;0.60;0.60;;;;;;;16.96;50.50;100352.19;5094184;28;20198;-73
2023/04/29 04:34:56;;;;;;;0.68;0.68;;;;;;;17.45;47.53;100374.53;5093969;28;20225;-72
2023/04/29 04:37:22;;;;;;;0.60;0.60;;;;;;;17.91;46.62;100377.66;5058018;28;20284;-72
2023/04/29 04:39:49;;;;;;;0.60;0.60;;;;;;;18.16;46.36;100371.25;5093697;28;20190;-72
2023/04/29 04:42:16;;;;;;;0.50;0.50;;;;;;;17.31;46.93;100368.53;5093974;28;20202;-72
2023/04/29 04:44:43;;;;;;;0.60;0.60;;;;;;;17.13;48.28;100368.69;5093620;28;20206;-72
2023/04/29 04:47:11;;;;;;;0.60;0.60;;;;;;;17.26;48.49;100373.84;5093874;28;20233;-73
2023/04/29 04:49:38;;;;;;;0.55;0.55;;;;;;;17.31;48.34;100371.16;5093771;28;20672;-72
2023/04/29 04:52:05;;;;;;;0.60;0.60;;;;;;;16.56;49.56;100375.13;5093693;28;20225;-73
2023/04/29 04:54:32;;;;;;;0.60;0.60;;;;;;;15.70;51.08;100376.19;5093368;28;20194;-73
2023/04/29 04:56:58;;;;;;;0.70;0.70;;;;;;;15.61;51.34;100350.09;5093402;28;20233;-72
2023/04/29 04:59:25;;;;;;;0.70;0.70;;;;;;;15.38;52.49;100384.91;5093387;28;20198;-77
2023/04/29 05:01:52;;;;;;;0.70;0.70;;;;;;;15.00;54.76;100384.00;5093697;28;20255;-77
2023/04/29 05:04:20;;;;;;;0.60;0.60;;;;;;;14.48;54.93;100384.72;5093996;28;20195;-77
2023/04/29 05:06:47;;;;;;;0.60;0.60;;;;;;;14.36;55.34;100380.31;5093716;28;20198;-72
2023/04/29 05:09:14;;;;;;;0.60;0.60;;;;;;;14.45;55.51;100376.88;5093621;28;20316;-72
2023/04/29 05:11:41;;;;;;;0.68;0.68;;;;;;;13.95;56.89;100299.22;5093127;28;20297;-73
2023/04/29 05:14:07;;;;;;;0.60;0.60;;;;;;;14.54;55.99;100379.50;5093331;28;20202;-76
2023/04/29 05:16:34;;;;;;;0.70;0.70;;;;;;;13.72;57.81;100358.19;5092614;28;20275;-69
2023/04/29 05:19:01;;;;;;;0.60;0.60;;;;;;;13.99;58.66;100391.38;5092334;28;20213;-73
2023/04/29 05:21:30;;;;;;;2.60;1.30;;;;;;;14.10;59.83;100380.13;5070354;28;20195;-74
2023/04/29 05:23:57;;;;;;;0.60;0.60;;;;;;;13.45;60.99;100368.41;5056275;28;20207;-69
2023/04/29 05:26:23;;;;;;;0.60;0.60;;;;;;;13.32;62.59;100373.53;5079692;28;20205;-69
2023/04/29 05:28:50;;;;;;;0.77;0.77;;;;;;;13.13;63.65;100376.81;5075260;28;20218;-68
2023/04/29 05:31:17;;;;;;;0.70;0.70;;;;;;;13.50;64.30;100375.41;5078184;28;20259;-68
2023/04/29 05:33:44;;;;;;;0.70;0.70;;;;;;;13.28;64.05;100373.47;5055193;28;20201;-71
2023/04/29 05:36:10;;;;;;;0.70;0.70;;;;;;;13.10;64.72;100376.78;5091577;28;20255;-71
2023/04/29 05:38:39;;;;;;;0.70;0.70;;;;;;;12.99;66.56;100382.69;5086361;28;20205;-69
2023/04/29 05:41:05;;;;;;;0.70;0.70;;;;;;;12.87;68.37;100383.47;5083967;28;20230;-68
2023/04/29 05:43:32;;;;;;;0.70;0.70;;;;;;;13.24;68.60;100382.97;5072521;28;20215;-72
2023/04/29 05:45:59;;;;;;;0.70;0.70;;;;;;;12.89;68.17;100372.22;5085816;28;20238;-72
2023/04/29 05:48:26;;;;;;;0.70;0.70;;;;;;;12.45;68.69;100302.38;5079408;28;20206;-69
2023/04/29 05:50:53;;;;;;;1.15;1.15;;;;;;;13.11;72.66;100383.75;5081101;28;20194;-73
2023/04/29 05:53:20;;;;;;;0.70;0.70;;;;;;;13.29;67.80;100381.31;5089703;28;20249;-75
2023/04/29 05:55:49;;;;;;;0.65;0.65;;;;;;;13.61;67.03;100381.56;5093516;28;20218;-74
2023/04/29 05:58:16;;;;;;;1.60;1.60;;;;;;;13.74;64.24;100388.59;5083216;28;20194;-73
2023/04/29 06:00:43;;;;;;;0.60;0.60;;;;;;;13.87;62.87;100373.94;5087371;28;20205;-73
2023/04/29 06:03:10;;;;;;;0.70;0.70;;;;;;;14.24;80.66;100381.09;5082192;28;20289;-73
2023/04/29 06:05:37;;;;;;;0.70;0.70;;;;;;;14.16;62.62;100387.13;5086347;28;20204;-73
2023/04/29 06:08:05;;;;;;;1.67;1.67;;;;;;;13.80;62.59;100377.38;5092212;28;20218;-74
2023/04/29 06:10:32;;;;;;;0.60;0.60;;;;;;;13.55;63.34;100383.25;5072722;28;20209;-73
2023/04/29 06:13:00;;;;;;;0.60;0.60;;;;;;;13.98;61.57;100385.31;5087364;28;20205;-73
2023/04/29 06:15:27;;;;;;;3.45;1.27;;;;;;;13.79;61.15;100386.03;5088152;28;20237;-72
2023/04/29 06:17:54;;;;;;;0.70;0.70;;;;;;;14.00;60.17;100390.50;5086369;28;20202;-74
2023/04/29 06:20:21;;;;;;;0.70;0.70;;;;;;;14.09;59.29;100385.38;5085664;28;20289;-74
2023/04/29 06:22:48;;;;;;;0.60;0.60;;;;;;;13.41;60.05;100305.00;5073255;28;20210;-73
2023/04/29 06:25:15;;;;;;;1.00;1.00;;;;;;;13.94;60.97;100388.75;5044296;28;20222;-74
2023/04/29 06:27:42;;;;;;;0.70;0.70;;;;;;;14.05;59.60;100367.97;5085624;28;20200;-73
2023/04/29 06:30:11;;;;;;;1.17;1.17;;;;;;;14.23;57.75;100384.53;5076235;28;20214;-74
2023/04/29 06:32:38;;;;;;;0.60;0.60;;;;;;;14.21;58.91;100375.84;5072343;28;20654;-74
2023/04/29 06:35:06;;;;;;;0.70;0.70;;;;;;;14.37;60.86;100372.50;5088153;28;20202;-75
2023/04/29 06:37:33;;;;;;;1.10;1.10;;;;;;;14.40;57.97;100382.06;5089177;28;20226;-73
2023/04/29 06:39:59;;;;;;;0.80;0.80;;;;;;;14.17;57.96;100374.09;5091438;28;20604;-71
2023/04/29 06:42:27;;;;;;;0.63;0.63;;;;;;;14.43;55.47;100375.97;5086620;28;20201;-71
2023/04/29 06:44:54;;;;;;;0.70;0.70;;;;;;;14.35;57.76;100371.59;5065859;28;20199;-71
2023/04/29 06:47:22;;;;;;;0.60;0.60;;;;;;;14.47;55.72;100377.75;5084528;28;20230;-69
2023/04/29 06:49:49;;;;;;;0.70;0.70;;;;;;;14.58;54.77;100376.06;5058639;28;20593;-70
2023/04/29 06:52:15;;;;;;;0.70;0.70;;;;;;;14.61;55.12;100378.66;5088482;28;20213;-70
2023/04/29 06:54:43;;;;;;;0.60;0.60;;;;;;;14.82;54.67;100352.63;5091436;28;20198;-71
2023/04/29 06:57:10;;;;;;;0.60;0.60;;;;;;;14.83;54.00;100370.91;5091082;28;20221;-71
2023/04/29 06:59:37;;;;;;;0.70;0.70;;;;;;;14.89;54.48;100372.66;5091046;28;20202;-70
2023/04/29 07:02:04;;;;;;;0.70;0.70;;;;;;;14.77;53.72;100375.22;5089554;28;20662;-72
2023/04/29 07:04:32;;;;;;;0.80;0.80;;;;;;;14.65;55.50;100372.59;5088755;28;20190;-73
2023/04/29 07:06:59;;;;;;;0.63;0.63;;;;;;;14.68;54.63;100372.59;5091331;28;20263;-74
2023/04/29 07:09:26;;;;;;;0.60;0.60;;;;;;;14.83;55.25;100373.53;5090994;28;20573;-73
2023/04/29 07:11:53;;;;;;;0.60;0.60;;;;;;;15.06;54.40;100357.88;5088485;28;20277;-74
2023/04/29 07:14:22;;;;;;;0.60;0.60;;;;;;;15.33;55.68;100370.97;5087451;28;20283;-73
2023/04/29 07:16:53;;;;;;;0.60;0.60;;;;;;;15.29;54.98;100374.47;5078639;28;20226;-73
2023/04/29 07:19:21;;;;;;;0.60;0.60;;;;;;;15.50;54.83;100364.91;5079592;28;20205;-73
2023/04/29 07:21:49;;;;;;;0.60;0.60;;;;;;;15.82;54.12;100361.38;5074844;28;20245;-73
2023/04/29 07:24:15;;;;;;;0.63;0.63;;;;;;;15.37;55.38;100341.34;5087287;28;20201;-73
2023/04/29 07:26:44;;;;;;;0.60;0.60;;;;;;;15.82;56.34;100340.47;5090774;28;20267;-73
2023/04/29 07:29:11;;;;;;;1.75;1.67;;;;;;;15.72;56.39;100358.78;5090543;28;20263;-73
2023/04/29 07:31:37;;;;;;;0.57;0.57;;;;;;;15.76;57.53;100342.22;5087556;28;20207;-73
2023/04/29 07:34:04;;;;;;;0.70;0.70;;;;;;;15.38;54.87;100345.72;5039824;28;20681;-74
2023/04/29 07:36:31;;;;;;;0.50;0.50;;;;;;;15.38;55.55;100345.72;5087416;28;20226;-73
2023/04/29 07:39:00;;;;;;;0.60;0.60;;;;;;;15.72;54.99;100353.56;5087921;28;20202;-73
2023/04/29 07:41:27;;;;;;;0.60;0.60;;;;;;;15.78;53.05;100356.16;5089729;28;20700;-72
2023/04/29 07:43:53;;;;;;;0.60;0.60;;;;;;;15.70;54.34;100344.84;5084588;28;20613;-72
2023/04/29 07:46:20;;;;;;;0.60;0.60;;;;;;;15.74;53.93;100351.81;5047635;28;20234;-72
2023/04/29 07:48:47;;;;;;;0.60;0.60;;;;;;;15.44;54.75;100354.44;5070432;28;20201;-72
2023/04/29 07:51:15;;;;;;;0.60;0.60;;;;;;;15.63;54.31;100358.78;5085347;28;20202;-73
2023/04/29 07:53:42;;;;;;;0.90;0.90;;;;;;;15.42;52.97;100356.16;5073796;28;20207;-73
2023/04/29 07:56:10;;;;;;;1.45;1.45;;;;;;;15.67;53.92;100350.94;5088073;28;20657;-73
2023/04/29 07:58:37;;;;;;;0.80;0.80;;;;;;;15.53;53.91;100364.91;5085496;28;20565;-72
2023/04/29 08:01:07;;;;;;;0.60;0.60;;;;;;;15.58;52.54;100329.19;5086170;28;20203;-73
2023/04/29 08:03:34;;;;;;;0.60;0.60;;;;;;;15.96;53.25;100348.28;5079889;28;20206;-73
2023/04/29 08:06:02;;;;;;;0.60;0.60;;;;;;;16.18;52.38;100339.50;5050438;28;20198;-73
2023/04/29 08:08:29;;;;;;;1.92;1.85;;;;;;;15.35;52.11;100238.59;5077703;28;20203;-74
2023/04/29 08:10:56;;;;;;;0.60;0.60;;;;;;;15.85;53.67;100329.13;5079253;28;20714;-75
2023/04/29 08:13:24;;;;;;;0.90;0.90;;;;;;;16.05;53.47;100332.53;5070946;28;20279;-74
2023/04/29 08:15:52;;;;;;;0.60;0.60;;;;;;;16.12;52.56;100323.81;5080807;28;20213;-74
2023/04/29 08:18:20;;;;;;;0.70;0.70;;;;;;;15.85;52.33;100326.50;5046496;28;20210;-74
2023/04/29 08:20:48;;;;;;;0.52;0.52;;;;;;;15.79;50.79;100323.91;5088420;28;20592;-74
2023/04/29 08:23:15;;;;;;;0.60;0.60;;;;;;;15.90;51.08;100311.69;5085974;28;20230;-73
2023/04/29 08:25:42;;;;;;;0.70;0.70;;;;;;;15.95;51.58;100335.19;5085184;28;20195;-73
2023/04/29 08:28:09;;;;;;;0.60;0.60;;;;;;;15.63;50.58;100324.81;5088383;28;20230;-74
2023/04/29 08:30:39;;;;;;;0.70;0.70;;;;;;;15.81;52.96;100327.38;5089680;28;20205;-73
2023/04/29 08:33:07;;;;;;;0.75;0.75;;;;;;;16.00;53.41;100330.81;5089076;28;20202;-73
2023/04/29 08:35:36;;;;;;;0.60;0.60;;;;;;;15.79;52.71;100329.16;5089373;28;20610;-73
2023/04/29 08:38:03;;;;;;;0.70;0.70;;;;;;;15.57;52.50;100333.53;5052955;28;20226;-72
2023/04/29 08:40:30;;;;;;;0.85;0.85;;;;;;;15.75;52.67;100270.75;5089730;28;20202;-73
2023/04/29 08:42:58;;;;;;;0.60;0.60;;;;;;;15.89;52.86;100283.78;5086562;28;20202;-75
2023/04/29 08:45:27;;;;;;;0.60;0.60;;;;;;;16.26;54.06;100305.44;5087195;28;20213;-75
2023/04/29 08:47:56;;;;;;;0.80;0.80;;;;;;;16.44;52.91;100314.97;5071095;28;20202;-73
2023/04/29 08:50:24;;;;;;;0.60;0.60;;;;;;;16.66;53.71;100316.59;5088746;28;20244;-73
2023/04/29 08:52:51;;;;;;;0.65;0.65;;;;;;;16.50;53.77;100288.75;5082200;28;20199;-73
2023/04/29 08:55:18;;;;;;;0.60;0.60;;;;;;;16.67;51.55;100307.88;5071526;28;20409;-73
2023/04/29 08:57:47;;;;;;;0.60;0.60;;;;;;;16.73;52.16;100302.63;5085822;28;20784;-74
2023/04/29 09:00:14;;;;;;;0.50;0.50;;;;;;;16.76;51.52;100307.81;5086906;28;20209;-74
2023/04/29 09:02:45;;;;;;;0.90;0.90;;;;;;;16.91;49.93;100307.69;5085371;28;20201;-73
2023/04/29 09:05:14;;;;;;;1.33;1.23;;;;;;;16.68;50.09;100305.25;5092981;28;20297;-74
2023/04/29 09:07:41;;;;;;;0.60;0.60;;;;;;;16.68;49.95;100304.38;5092025;28;20214;-74
2023/04/29 09:10:09;;;;;;;0.80;0.80;;;;;;;17.05;49.29;100305.84;5076649;28;20202;-74
2023/04/29 09:12:36;;;;;;;0.60;0.60;;;;;;;16.98;49.68;100304.16;5059203;28;20211;-73
2023/04/29 09:15:03;;;;;;;0.50;0.50;;;;;;;16.96;48.98;100300.69;5071831;28;20217;-73
2023/04/29 09:17:40;;;;;;;0.60;0.60;;;;;;;17.24;47.35;100307.44;5077640;28;20230;-74
2023/04/29 09:20:32;;;;;;;0.68;0.68;;;;;;;17.24;46.68;100307.44;5092734;28;20348;-73
2023/04/29 09:23:01;;;;;;;0.60;0.60;;;;;;;17.24;47.96;100302.22;5079706;28;20209;-73
2023/04/29 09:25:28;;;;;;;0.60;0.60;;;;;;;17.23;46.68;100299.59;5090616;28;20229;-74
2023/04/29 09:27:56;;;;;;;0.60;0.60;;;;;;;17.26;46.48;100297.84;5088955;28;20210;-74
2023/04/29 09:30:23;;;;;;;0.60;0.60;;;;;;;17.52;46.62;100301.94;5072602;28;20198;-73
2023/04/29 09:33:06;;;;;;;0.60;0.60;;;;;;;17.22;46.88;100297.88;5083488;28;20208;-75
2023/04/29 09:35:35;;;;;;;0.60;0.60;;;;;;;17.74;45.51;100293.00;4979308;28;20347;-74
2023/04/29 09:38:12;;;;;;;0.70;0.70;;;;;;;18.00;44.01;100292.72;5006937;28;20230;-73
2023/04/29 09:40:40;;;;;;;0.68;0.68;;;;;;;17.55;44.68;100291.47;5012201;28;20200;-72
2023/04/29 09:43:14;;;;;;;6.32;1.35;;;;;;;17.39;45.18;100266.25;4987343;28;20200;-74
2023/04/29 09:45:42;;;;;;;0.60;0.60;;;;;;;17.65;45.14;100273.03;5016248;28;20252;-74
2023/04/29 09:48:11;;;;;;;0.70;0.70;;;;;;;17.77;44.23;100277.25;5025696;28;20247;-69
2023/04/29 09:50:40;;;;;;;0.70;0.70;;;;;;;17.83;45.29;100277.19;5012546;28;20204;-72
2023/04/29 09:53:08;;;;;;;0.70;0.70;;;;;;;17.80;43.96;100236.09;5010055;28;20212;-69
2023/04/29 09:55:35;;;;;;;0.60;0.60;;;;;;;17.95;44.56;100273.53;4995110;28;20292;-70
2023/04/29 09:58:02;;;;;;;0.60;0.60;;;;;;;17.96;44.14;100278.78;4966156;28;20315;-76
2023/04/29 10:00:32;;;;;;;0.80;0.80;;;;;;;18.05;44.41;100276.03;5024481;28;20223;-71
2023/04/29 10:03:00;;;;;;;0.60;0.60;;;;;;;18.01;44.74;100266.50;5029399;28;20301;-70
2023/04/29 10:05:29;;;;;;;0.60;0.60;;;;;;;18.13;44.74;100263.69;5028765;28;20224;-71
2023/04/29 10:07:58;;;;;;;0.60;0.60;;;;;;;18.38;44.03;100256.34;5028874;28;20291;-73
2023/04/29 10:10:28;;;;;;;0.50;0.50;;;;;;;18.43;43.41;100258.94;4987475;28;20233;-71
2023/04/29 10:12:55;;;;;;;0.60;0.60;;;;;;;18.51;42.86;100263.22;5035101;28;20198;-73
2023/04/29 10:15:27;;;;;;;0.60;0.60;;;;;;;18.09;43.22;100262.00;5090556;28;20202;-74
2023/04/29 10:18:00;;;;;;;0.60;0.60;;;;;;;18.01;42.76;100253.38;5077633;28;20214;-72
2023/04/29 10:20:28;;;;;;;0.60;0.60;;;;;;;17.92;43.94;100260.47;5089869;28;20210;-73
2023/04/29 10:22:58;;;;;;;0.70;0.70;;;;;;;18.05;42.90;100252.41;5073745;28;20230;-73
2023/04/29 10:25:26;;;;;;;0.65;0.65;;;;;;;17.91;42.52;100194.00;5079144;28;20205;-73
2023/04/29 10:27:55;;;;;;;0.70;0.70;;;;;;;18.54;41.64;100249.16;5074714;28;20871;-71
2023/04/29 10:30:23;;;;;;;5.82;1.25;;;;;;;18.52;42.40;100253.56;5079206;28;20198;-70
2023/04/29 10:32:51;;;;;;;0.70;0.70;;;;;;;18.34;41.32;100255.53;5090115;28;20248;-69
2023/04/29 10:35:21;;;;;;;0.60;0.60;;;;;;;18.01;42.13;100250.75;5070963;28;20215;-73
2023/04/29 10:37:48;;;;;;;0.60;0.60;;;;;;;17.79;43.04;100229.16;5085485;28;20306;-73
2023/04/29 10:40:22;;;;;;;0.70;0.70;;;;;;;18.20;43.20;100253.97;5076050;28;20202;-72
2023/04/29 10:42:51;;;;;;;0.60;0.60;;;;;;;18.49;41.09;100248.31;5075867;28;20207;-73
2023/04/29 10:45:22;;;;;;;0.70;0.70;;;;;;;18.72;41.29;100247.16;5078011;28;20234;-70
2023/04/29 10:48:15;;;;;;;0.60;0.60;;;;;;;18.75;41.10;100246.22;5030515;28;20216;-72
2023/04/29 10:51:01;;;;;;;0.60;0.60;;;;;;;18.98;44.00;100244.06;5038801;28;20209;-72
2023/04/29 10:53:28;;;;;;;0.50;0.50;;;;;;;18.88;41.07;100250.38;5033063;28;20282;-70
2023/04/29 10:55:58;;;;;;;0.50;0.50;;;;;;;18.97;43.41;100225.72;5038491;28;20250;-70
2023/04/29 10:58:39;;;;;;;0.93;0.93;;;;;;;19.02;40.83;100240.50;5049172;28;20242;-71
2023/04/29 11:01:09;;;;;;;0.98;0.98;;;;;;;18.83;40.55;100241.72;5051025;28;20262;-71
2023/04/29 11:03:58;;;;;;;0.60;0.60;;;;;;;19.06;40.76;100239.56;5047473;28;20228;-70
2023/04/29 11:06:26;;;;;;;0.60;0.60;;;;;;;19.15;42.17;100193.88;5031271;28;20239;-72
2023/04/29 11:09:07;;;;;;;0.75;0.75;;;;;;;19.38;40.33;100206.56;5030659;28;20698;-73
2023/04/29 11:11:47;;;;;;;0.60;0.60;;;;;;;19.73;40.78;100230.47;5030425;28;20291;-70
2023/04/29 11:14:15;;;;;;;0.60;0.60;;;;;;;19.18;39.94;100220.97;5030216;28;20206;-71
2023/04/29 11:16:51;;;;;;;0.60;0.60;;;;;;;19.19;41.07;100227.09;5030618;28;20333;-71
2023/04/29 11:19:18;;;;;;;0.60;0.60;;;;;;;19.15;40.07;100225.41;5030607;28;20200;-71
2023/04/29 11:21:46;;;;;;;0.60;0.60;;;;;;;19.24;40.31;100199.81;5030947;28;20211;-72
2023/04/29 11:24:16;;;;;;;0.70;0.70;;;;;;;19.24;40.04;100210.34;5030701;28;20247;-71
2023/04/29 11:26:45;;;;;;;0.60;0.60;;;;;;;18.97;40.68;100216.09;5029811;28;20569;-72
2023/04/29 11:29:12;;;;;;;0.63;0.63;;;;;;;19.18;39.61;100215.72;5030740;28;20287;-70